Time;durP1;ratioP1;P1;durP2;ratioP2;P2;SDS_P1;SDS_P2;PMS_P1;PMS_P2;Temp;Humidity;BMP_temperature;BMP_pressure;BME280_temperature;BME280_humidity;BME280_pressure;Samples;Min_cycle;Max_cycle;Signal;HPM_P1;HPM_P2
2021/12/31 00:00:33;;;;;;;3.33;2.47;;;;;;;;;;5034739;28;20226;-79
2021/12/31 00:03:01;;;;;;;5.80;2.60;;;;;;;;;;5034225;28;20276;-79
2021/12/31 00:05:28;;;;;;;6.10;2.93;;;;;;;;;;5034622;28;20227;-79
2021/12/31 00:07:55;;;;;;;4.03;2.70;;;;;;;;;;5034114;28;20215;-79
2021/12/31 00:10:22;;;;;;;5.27;3.10;;;;;;;;;;5034349;28;20226;-79
2021/12/31 00:12:50;;;;;;;6.17;2.97;;;;;;;;;;5033504;28;20266;-78
2021/12/31 00:15:17;;;;;;;6.13;3.10;;;;;;;;;;5034059;28;20211;-79
2021/12/31 00:17:44;;;;;;;4.03;3.00;;;;;;;;;;5034208;28;20221;-79
2021/12/31 00:20:16;;;;;;;6.97;3.13;;;;;;;;;;5033595;28;20238;-78
2021/12/31 00:23:00;;;;;;;5.37;2.80;;;;;;;;;;5034114;28;20269;-78
2021/12/31 00:25:28;;;;;;;4.10;3.13;;;;;;;;;;5033630;28;20306;-79
2021/12/31 00:27:55;;;;;;;5.57;2.93;;;;;;;;;;5033712;28;20222;-79
2021/12/31 00:30:22;;;;;;;4.93;3.20;;;;;;;;;;5033540;28;20234;-78
2021/12/31 00:32:49;;;;;;;7.17;3.23;;;;;;;;;;5033328;28;20214;-78
2021/12/31 00:35:18;;;;;;;4.10;3.30;;;;;;;;;;5033889;28;20231;-79
2021/12/31 00:37:45;;;;;;;4.57;2.77;;;;;;;;;;5033915;28;20217;-79
2021/12/31 00:40:13;;;;;;;6.43;3.40;;;;;;;;;;5033272;28;20246;-79
2021/12/31 00:42:41;;;;;;;5.47;3.10;;;;;;;;;;5033567;28;20211;-78
2021/12/31 00:45:10;;;;;;;6.53;3.80;;;;;;;;;;5033161;28;20326;-79
2021/12/31 00:47:37;;;;;;;8.23;3.73;;;;;;;;;;5033995;28;20211;-78
2021/12/31 00:50:04;;;;;;;7.13;3.23;;;;;;;;;;5033108;28;20238;-79
2021/12/31 00:52:32;;;;;;;7.70;4.03;;;;;;;;;;5033442;28;20207;-79
2021/12/31 00:54:59;;;;;;;7.33;3.70;;;;;;;;;;5032996;28;20288;-78
2021/12/31 00:57:26;;;;;;;5.53;2.93;;;;;;;;;;5033804;28;20207;-79
2021/12/31 00:59:54;;;;;;;5.47;3.67;;;;;;;;;;5032778;28;20710;-79
2021/12/31 01:02:23;;;;;;;4.53;3.23;;;;;;;;;;5033591;28;20249;-79
2021/12/31 01:04:50;;;;;;;6.23;3.50;;;;;;;;;;5032772;28;20234;-78
2021/12/31 01:07:17;;;;;;;4.37;3.20;;;;;;;;;;5033407;28;20755;-79
2021/12/31 01:09:46;;;;;;;5.20;3.03;;;;;;;;;;5032618;28;20238;-79
2021/12/31 01:12:14;;;;;;;4.77;3.33;;;;;;;;;;5033249;28;20301;-79
2021/12/31 01:14:42;;;;;;;6.93;3.47;;;;;;;;;;5032587;28;20258;-79
2021/12/31 01:17:11;;;;;;;7.10;3.67;;;;;;;;;;5033626;28;20694;-79
2021/12/31 01:19:45;;;;;;;5.33;3.20;;;;;;;;;;5033494;28;20641;-79
2021/12/31 01:22:12;;;;;;;4.73;3.37;;;;;;;;;;5033618;28;20292;-79
2021/12/31 01:24:39;;;;;;;6.40;3.33;;;;;;;;;;5032712;28;20238;-79
2021/12/31 01:27:08;;;;;;;4.80;3.00;;;;;;;;;;5033572;28;20214;-79
2021/12/31 01:29:35;;;;;;;5.57;3.23;;;;;;;;;;5032788;28;20238;-79
2021/12/31 01:32:02;;;;;;;6.60;3.40;;;;;;;;;;5034567;28;20203;-80
2021/12/31 01:34:29;;;;;;;8.73;3.33;;;;;;;;;;5036443;28;20234;-80
2021/12/31 01:36:56;;;;;;;3.40;3.10;;;;;;;;;;5037167;28;20203;-80
2021/12/31 01:39:23;;;;;;;4.17;3.23;;;;;;;;;;5036379;28;20241;-80
2021/12/31 01:41:50;;;;;;;6.87;3.33;;;;;;;;;;5036045;28;20231;-80
2021/12/31 01:44:20;;;;;;;4.10;3.47;;;;;;;;;;5035529;28;20246;-80
2021/12/31 01:46:54;;;;;;;7.63;3.33;;;;;;;;;;5036436;28;20718;-80
2021/12/31 01:49:23;;;;;;;4.50;3.43;;;;;;;;;;5035155;28;20693;-80
2021/12/31 01:51:50;;;;;;;4.33;3.53;;;;;;;;;;5035433;28;20246;-80
2021/12/31 01:54:17;;;;;;;5.20;3.20;;;;;;;;;;5035524;28;20913;-80
2021/12/31 01:56:44;;;;;;;3.63;3.33;;;;;;;;;;5034712;28;20607;-80
2021/12/31 01:59:12;;;;;;;5.40;3.23;;;;;;;;;;5035092;28;20630;-80
2021/12/31 02:01:40;;;;;;;7.73;3.60;;;;;;;;;;5033183;28;20219;-80
2021/12/31 02:04:08;;;;;;;6.87;3.37;;;;;;;;;;5030230;28;20241;-80
2021/12/31 02:06:35;;;;;;;6.77;3.43;;;;;;;;;;5029215;28;20223;-80
2021/12/31 02:09:02;;;;;;;4.33;3.30;;;;;;;;;;5016794;28;20239;-80
2021/12/31 02:11:30;;;;;;;7.43;3.30;;;;;;;;;;5018917;28;20215;-80
2021/12/31 02:13:57;;;;;;;6.47;3.20;;;;;;;;;;5034632;28;20249;-80
2021/12/31 02:16:24;;;;;;;7.73;3.17;;;;;;;;;;5034845;28;20202;-80
2021/12/31 02:18:53;;;;;;;3.63;3.10;;;;;;;;;;5034669;28;20238;-80
2021/12/31 02:21:21;;;;;;;6.07;3.47;;;;;;;;;;5034536;28;20238;-80
2021/12/31 02:23:52;;;;;;;5.47;3.30;;;;;;;;;;5033758;28;20226;-80
2021/12/31 02:26:19;;;;;;;3.30;3.00;;;;;;;;;;5035140;28;20369;-80
2021/12/31 02:28:46;;;;;;;5.73;3.20;;;;;;;;;;5034526;28;20234;-80
2021/12/31 02:31:13;;;;;;;4.97;3.33;;;;;;;;;;5034496;28;20249;-80
2021/12/31 02:33:40;;;;;;;4.63;3.40;;;;;;;;;;5033839;28;20235;-80
2021/12/31 02:36:08;;;;;;;4.50;3.10;;;;;;;;;;5033668;28;20209;-80
2021/12/31 02:38:36;;;;;;;6.27;3.40;;;;;;;;;;5033929;28;20254;-80
2021/12/31 02:41:03;;;;;;;3.03;2.77;;;;;;;;;;5034600;28;20714;-80
2021/12/31 02:43:31;;;;;;;5.97;3.23;;;;;;;;;;5033476;28;20235;-80
2021/12/31 02:45:58;;;;;;;4.83;3.40;;;;;;;;;;5034765;28;20591;-80
2021/12/31 02:48:25;;;;;;;4.40;3.27;;;;;;;;;;5033532;28;20238;-80
2021/12/31 02:50:54;;;;;;;7.90;3.40;;;;;;;;;;5055204;23;20721;-82
2021/12/31 02:53:24;;;;;;;4.23;3.10;;;;;;;;;;5043347;28;20316;-83
2021/12/31 02:55:55;;;;;;;6.27;3.43;;;;;;;;;;5051881;28;20666;-82
2021/12/31 02:58:22;;;;;;;3.00;2.80;;;;;;;;;;5051396;28;20236;-82
2021/12/31 03:00:49;;;;;;;4.40;3.23;;;;;;;;;;5039331;28;20610;-82
2021/12/31 03:03:16;;;;;;;6.37;3.47;;;;;;;;;;5031615;28;20598;-82
2021/12/31 03:05:44;;;;;;;4.10;3.20;;;;;;;;;;5031657;28;20234;-82
2021/12/31 03:08:12;;;;;;;7.57;3.70;;;;;;;;;;5031546;28;20235;-82
2021/12/31 03:10:40;;;;;;;5.37;3.40;;;;;;;;;;5032124;28;20237;-82
2021/12/31 03:13:09;;;;;;;5.20;3.17;;;;;;;;;;5031921;28;20210;-82
2021/12/31 03:15:36;;;;;;;5.47;3.70;;;;;;;;;;5031991;28;20662;-82
2021/12/31 03:18:06;;;;;;;9.10;4.03;;;;;;;;;;5031580;28;20206;-83
2021/12/31 03:20:38;;;;;;;5.27;3.97;;;;;;;;;;5031977;28;20280;-82
2021/12/31 03:23:05;;;;;;;5.73;3.90;;;;;;;;;;5031773;28;20288;-82
2021/12/31 03:25:33;;;;;;;6.77;3.90;;;;;;;;;;5012374;28;20227;-82
2021/12/31 03:28:00;;;;;;;6.33;3.70;;;;;;;;;;5011895;28;20214;-82
2021/12/31 03:30:28;;;;;;;4.40;3.70;;;;;;;;;;5011720;28;20636;-82
2021/12/31 03:32:55;;;;;;;6.40;4.07;;;;;;;;;;5007497;28;20680;-82
2021/12/31 03:35:23;;;;;;;6.40;3.30;;;;;;;;;;4992751;28;20205;-82
2021/12/31 03:37:50;;;;;;;5.17;3.10;;;;;;;;;;4992339;28;20216;-82
2021/12/31 03:40:17;;;;;;;7.33;3.20;;;;;;;;;;4992950;28;20320;-82
2021/12/31 03:42:44;;;;;;;6.60;3.20;;;;;;;;;;4992506;28;20215;-82
2021/12/31 03:45:11;;;;;;;4.97;3.33;;;;;;;;;;4996865;28;20242;-82
2021/12/31 03:47:40;;;;;;;4.93;2.63;;;;;;;;;;5015477;28;20262;-82
2021/12/31 03:50:07;;;;;;;4.43;2.70;;;;;;;;;;5015241;28;20611;-82
2021/12/31 03:52:37;;;;;;;4.77;2.80;;;;;;;;;;5016017;28;20199;-82
2021/12/31 03:55:04;;;;;;;3.67;2.60;;;;;;;;;;5015370;28;20326;-82
2021/12/31 03:57:31;;;;;;;7.67;3.20;;;;;;;;;;5015827;28;20257;-82
2021/12/31 03:59:58;;;;;;;2.73;2.37;;;;;;;;;;5021043;28;20344;-82
2021/12/31 04:02:25;;;;;;;2.43;2.23;;;;;;;;;;5027823;28;20211;-83
2021/12/31 04:04:54;;;;;;;3.70;2.50;;;;;;;;;;5008421;28;20231;-82
2021/12/31 04:07:22;;;;;;;2.60;2.40;;;;;;;;;;5005801;28;20262;-83
2021/12/31 04:09:50;;;;;;;3.47;2.43;;;;;;;;;;5011949;28;20707;-83
2021/12/31 04:12:17;;;;;;;5.23;2.73;;;;;;;;;;5002883;28;20207;-82
2021/12/31 04:14:44;;;;;;;4.30;2.73;;;;;;;;;;4999433;28;20231;-82
2021/12/31 04:17:11;;;;;;;3.93;2.60;;;;;;;;;;5007323;28;20203;-82
2021/12/31 04:19:38;;;;;;;3.83;2.67;;;;;;;;;;5013675;28;20281;-83
2021/12/31 04:22:08;;;;;;;3.73;2.20;;;;;;;;;;5002492;28;20708;-82
2021/12/31 04:27:16;;;;;;;5.20;3.00;;;;;;;;;;5006627;28;20232;-83
2021/12/31 04:29:50;;;;;;;4.30;2.67;;;;;;;;;;4998115;28;20239;-83
2021/12/31 04:32:17;;;;;;;5.33;2.80;;;;;;;;;;5001457;28;20211;-83
2021/12/31 04:34:44;;;;;;;4.33;2.50;;;;;;;;;;4996130;28;20240;-83
2021/12/31 04:37:12;;;;;;;3.87;2.60;;;;;;;;;;4998526;28;20211;-82
2021/12/31 04:39:39;;;;;;;3.27;2.67;;;;;;;;;;4996217;28;20235;-82
2021/12/31 04:42:07;;;;;;;3.33;2.60;;;;;;;;;;4998098;28;20228;-82
2021/12/31 04:44:34;;;;;;;3.43;2.80;;;;;;;;;;4997592;28;20271;-82
2021/12/31 04:47:01;;;;;;;2.93;2.70;;;;;;;;;;4998280;28;20814;-83
2021/12/31 04:49:28;;;;;;;5.00;3.07;;;;;;;;;;4997419;28;20524;-82
2021/12/31 04:51:55;;;;;;;4.27;3.10;;;;;;;;;;5003167;28;20236;-82
2021/12/31 04:54:23;;;;;;;4.53;3.03;;;;;;;;;;5000347;28;20239;-82
2021/12/31 04:56:53;;;;;;;6.57;2.90;;;;;;;;;;4999732;28;20216;-83
2021/12/31 04:59:20;;;;;;;5.77;2.93;;;;;;;;;;4998987;28;20234;-82
2021/12/31 05:01:48;;;;;;;5.07;3.00;;;;;;;;;;4999147;28;20232;-82
2021/12/31 05:04:16;;;;;;;4.30;3.03;;;;;;;;;;4998301;28;20242;-82
2021/12/31 05:06:43;;;;;;;3.60;2.90;;;;;;;;;;4999473;28;20263;-83
2021/12/31 05:09:10;;;;;;;3.77;2.60;;;;;;;;;;4998757;28;20266;-82
2021/12/31 05:11:39;;;;;;;4.73;2.60;;;;;;;;;;4999366;28;20251;-82
2021/12/31 05:14:06;;;;;;;4.17;2.60;;;;;;;;;;4999130;28;20677;-82
2021/12/31 05:16:35;;;;;;;2.97;2.37;;;;;;;;;;4999209;28;20224;-83
2021/12/31 05:19:02;;;;;;;4.87;2.60;;;;;;;;;;4998960;28;20232;-82
2021/12/31 05:21:29;;;;;;;5.13;2.60;;;;;;;;;;4999078;28;20228;-83
2021/12/31 05:23:56;;;;;;;5.03;2.90;;;;;;;;;;4998746;28;20262;-82
2021/12/31 05:26:23;;;;;;;3.27;2.57;;;;;;;;;;5010802;28;20234;-83
2021/12/31 05:28:52;;;;;;;7.63;2.77;;;;;;;;;;5017956;28;20231;-82
2021/12/31 05:31:19;;;;;;;5.53;2.50;;;;;;;;;;5018339;28;20851;-82
2021/12/31 05:33:46;;;;;;;3.53;2.67;;;;;;;;;;5017352;28;20246;-83
2021/12/31 05:36:13;;;;;;;4.37;2.90;;;;;;;;;;5018330;28;20211;-82
2021/12/31 05:38:40;;;;;;;2.80;2.43;;;;;;;;;;5017482;28;20659;-82
2021/12/31 05:41:07;;;;;;;6.30;2.70;;;;;;;;;;5018741;28;20235;-82
2021/12/31 05:43:34;;;;;;;3.93;2.70;;;;;;;;;;5017442;28;20254;-82
2021/12/31 05:46:03;;;;;;;5.53;2.30;;;;;;;;;;5017863;28;20705;-82
2021/12/31 05:48:30;;;;;;;2.70;2.50;;;;;;;;;;5017313;28;20589;-84
2021/12/31 05:50:57;;;;;;;2.63;2.43;;;;;;;;;;5018485;28;20236;-82
2021/12/31 05:53:24;;;;;;;3.37;2.33;;;;;;;;;;5021936;28;20726;-82
2021/12/31 05:55:51;;;;;;;2.67;2.30;;;;;;;;;;5018427;28;20211;-82
2021/12/31 05:58:18;;;;;;;2.60;2.40;;;;;;;;;;5017773;28;20234;-82
2021/12/31 06:00:45;;;;;;;2.60;2.40;;;;;;;;;;5030037;28;20222;-82
2021/12/31 06:03:14;;;;;;;2.47;2.27;;;;;;;;;;5036719;28;20241;-82
2021/12/31 06:05:41;;;;;;;2.40;2.20;;;;;;;;;;5037390;28;20678;-82
2021/12/31 06:08:08;;;;;;;2.63;2.30;;;;;;;;;;5037251;28;20238;-84
2021/12/31 06:10:35;;;;;;;3.73;2.50;;;;;;;;;;5033185;28;20238;-85
2021/12/31 06:13:02;;;;;;;4.93;2.80;;;;;;;;;;5032016;28;20574;-85
2021/12/31 06:15:29;;;;;;;2.50;2.30;;;;;;;;;;5032571;28;20210;-85
2021/12/31 06:17:57;;;;;;;2.60;2.40;;;;;;;;;;5032178;28;20230;-85
2021/12/31 06:20:28;;;;;;;5.73;2.67;;;;;;;;;;5032609;28;20231;-85
2021/12/31 06:22:57;;;;;;;6.00;2.30;;;;;;;;;;5031876;28;20206;-85
2021/12/31 06:25:25;;;;;;;4.03;2.40;;;;;;;;;;5032439;28;20250;-85
2021/12/31 06:27:52;;;;;;;3.37;2.30;;;;;;;;;;5031942;28;20313;-85
2021/12/31 06:30:19;;;;;;;3.90;2.63;;;;;;;;;;5032598;28;20265;-85
2021/12/31 06:32:46;;;;;;;2.30;2.10;;;;;;;;;;5031476;28;20214;-85
2021/12/31 06:35:13;;;;;;;6.03;2.30;;;;;;;;;;5032450;28;20265;-85
2021/12/31 06:37:41;;;;;;;4.23;2.20;;;;;;;;;;5032291;28;20210;-85
2021/12/31 06:40:11;;;;;;;3.10;2.17;;;;;;;;;;5031635;28;20729;-85
2021/12/31 06:42:38;;;;;;;3.07;2.10;;;;;;;;;;5031828;28;20272;-85
2021/12/31 06:45:06;;;;;;;3.20;2.17;;;;;;;;;;5031694;28;20292;-85
2021/12/31 06:47:33;;;;;;;2.23;2.03;;;;;;;;;;5031844;28;20241;-85
2021/12/31 06:50:00;;;;;;;2.40;2.20;;;;;;;;;;5031518;28;20230;-85
2021/12/31 06:52:27;;;;;;;2.67;2.47;;;;;;;;;;5032014;28;20206;-85
2021/12/31 06:54:55;;;;;;;2.63;2.40;;;;;;;;;;5031443;28;20241;-85
2021/12/31 06:57:24;;;;;;;4.70;2.50;;;;;;;;;;5032089;28;20211;-85
2021/12/31 06:59:51;;;;;;;1.80;1.70;;;;;;;;;;5031347;28;20238;-85
2021/12/31 07:02:18;;;;;;;3.10;2.37;;;;;;;;;;5031719;28;20748;-85
2021/12/31 07:04:45;;;;;;;2.80;1.93;;;;;;;;;;5031316;28;20241;-85
2021/12/31 07:07:12;;;;;;;3.33;2.33;;;;;;;;;;5031836;28;20253;-85
2021/12/31 07:09:39;;;;;;;3.40;2.53;;;;;;;;;;5031345;28;20241;-85
2021/12/31 07:12:08;;;;;;;2.40;2.23;;;;;;;;;;5031451;28;20226;-85
2021/12/31 07:14:35;;;;;;;3.40;2.67;;;;;;;;;;5031219;28;20260;-85
2021/12/31 07:17:03;;;;;;;5.70;2.63;;;;;;;;;;5031839;28;20618;-85
2021/12/31 07:19:30;;;;;;;4.10;2.30;;;;;;;;;;5031390;28;20625;-85
2021/12/31 07:21:57;;;;;;;3.10;2.30;;;;;;;;;;5033716;28;20230;-85
2021/12/31 07:24:24;;;;;;;2.53;2.33;;;;;;;;;;5035167;28;20245;-85
2021/12/31 07:26:51;;;;;;;3.50;2.20;;;;;;;;;;5035611;28;20233;-85
2021/12/31 07:29:19;;;;;;;4.73;2.60;;;;;;;;;;5035224;28;20235;-85
2021/12/31 07:31:46;;;;;;;3.50;2.60;;;;;;;;;;5035128;28;20230;-85
2021/12/31 07:34:13;;;;;;;4.53;2.40;;;;;;;;;;5034791;28;20297;-86
2021/12/31 07:36:40;;;;;;;4.03;3.13;;;;;;;;;;5035176;28;20690;-85
2021/12/31 07:39:09;;;;;;;5.87;3.17;;;;;;;;;;5035199;28;20256;-85
2021/12/31 07:41:36;;;;;;;9.20;3.33;;;;;;;;;;5035156;28;20317;-85
2021/12/31 07:44:03;;;;;;;4.13;3.60;;;;;;;;;;5034644;28;20238;-85
2021/12/31 07:46:32;;;;;;;4.63;2.80;;;;;;;;;;5036239;28;20213;-84
2021/12/31 07:48:59;;;;;;;4.23;2.80;;;;;;;;;;5035945;28;20301;-85
2021/12/31 07:51:26;;;;;;;3.83;2.57;;;;;;;;;;5014418;28;20231;-85
2021/12/31 07:53:53;;;;;;;3.20;2.90;;;;;;;;;;5010252;28;20236;-85
2021/12/31 07:56:21;;;;;;;2.80;2.40;;;;;;;;;;4996231;28;20610;-85
2021/12/31 07:58:48;;;;;;;4.83;2.77;;;;;;;;;;4994882;28;20707;-85
2021/12/31 08:01:16;;;;;;;3.53;2.57;;;;;;;;;;5004343;28;20224;-84
2021/12/31 08:03:45;;;;;;;3.20;2.63;;;;;;;;;;5014244;28;20293;-85
2021/12/31 08:06:12;;;;;;;4.67;2.60;;;;;;;;;;5014144;28;20211;-85
2021/12/31 08:08:39;;;;;;;2.83;2.63;;;;;;;;;;5014522;28;20581;-84
2021/12/31 08:11:06;;;;;;;3.63;2.63;;;;;;;;;;5015383;28;20234;-85
2021/12/31 08:13:33;;;;;;;3.33;2.93;;;;;;;;;;5002273;28;20231;-84
2021/12/31 08:16:00;;;;;;;2.60;2.40;;;;;;;;;;5011884;28;20211;-85
2021/12/31 08:18:27;;;;;;;3.00;2.60;;;;;;;;;;5022042;28;20715;-84
2021/12/31 08:20:56;;;;;;;4.50;2.73;;;;;;;;;;5014792;28;20231;-85
2021/12/31 08:23:23;;;;;;;3.07;2.87;;;;;;;;;;5014116;28;20238;-85
2021/12/31 08:25:51;;;;;;;3.57;2.27;;;;;;;;;;5014645;28;20211;-85
2021/12/31 08:28:18;;;;;;;3.83;2.80;;;;;;;;;;5014287;28;20231;-84
2021/12/31 08:30:45;;;;;;;4.07;2.40;;;;;;;;;;5015082;28;20223;-85
2021/12/31 08:33:12;;;;;;;4.00;2.47;;;;;;;;;;5014283;28;20241;-85
2021/12/31 08:35:39;;;;;;;2.73;2.23;;;;;;;;;;5014926;28;20253;-85
2021/12/31 08:38:08;;;;;;;2.47;2.27;;;;;;;;;;5014080;28;20235;-87
2021/12/31 08:40:35;;;;;;;2.90;2.33;;;;;;;;;;5014693;28;20242;-86
2021/12/31 08:43:02;;;;;;;3.30;2.50;;;;;;;;;;5014415;28;20211;-86
2021/12/31 08:45:30;;;;;;;3.73;2.33;;;;;;;;;;5014534;28;20294;-86
2021/12/31 08:47:58;;;;;;;4.13;2.13;;;;;;;;;;5013899;28;20258;-86
2021/12/31 08:50:25;;;;;;;2.90;2.40;;;;;;;;;;5013947;28;20655;-85
2021/12/31 08:52:52;;;;;;;2.23;2.03;;;;;;;;;;5014072;28;20196;-85
2021/12/31 08:55:21;;;;;;;2.37;2.10;;;;;;;;;;5014207;28;20231;-86
2021/12/31 08:57:48;;;;;;;2.10;1.90;;;;;;;;;;5013607;28;20209;-86
2021/12/31 09:00:16;;;;;;;2.10;1.83;;;;;;;;;;5014190;28;20227;-85
2021/12/31 09:02:45;;;;;;;2.90;2.23;;;;;;;;;;5013945;28;20253;-85
2021/12/31 09:05:13;;;;;;;2.63;2.40;;;;;;;;;;5013956;28;20231;-86
2021/12/31 09:07:40;;;;;;;2.57;2.20;;;;;;;;;;5014062;28;20247;-85
2021/12/31 09:10:08;;;;;;;4.07;2.00;;;;;;;;;;5054152;22;20241;-79
2021/12/31 09:12:36;;;;;;;3.60;2.40;;;;;;;;;;5033755;28;20297;-78
2021/12/31 09:15:04;;;;;;;3.43;2.40;;;;;;;;;;5033162;28;20238;-78
2021/12/31 09:17:31;;;;;;;4.30;2.20;;;;;;;;;;5033473;28;20207;-80
2021/12/31 09:19:58;;;;;;;3.50;2.10;;;;;;;;;;5033056;28;20249;-80
2021/12/31 09:22:27;;;;;;;3.53;2.30;;;;;;;;;;5033478;28;20569;-79
2021/12/31 09:24:54;;;;;;;4.03;1.90;;;;;;;;;;5033349;28;20235;-79
2021/12/31 09:27:22;;;;;;;2.10;2.00;;;;;;;;;;5034981;28;20712;-79
2021/12/31 09:29:50;;;;;;;3.83;2.23;;;;;;;;;;5032947;28;20269;-79
2021/12/31 09:32:17;;;;;;;2.17;1.93;;;;;;;;;;5033001;28;20203;-79
2021/12/31 09:34:46;;;;;;;3.73;2.30;;;;;;;;;;5032900;28;20242;-79
2021/12/31 09:37:13;;;;;;;3.47;2.73;;;;;;;;;;5033154;28;20685;-78
2021/12/31 09:39:40;;;;;;;2.30;2.10;;;;;;;;;;5032573;28;20591;-79
2021/12/31 09:42:08;;;;;;;2.93;2.20;;;;;;;;;;5033122;28;20207;-79
2021/12/31 09:44:36;;;;;;;2.53;2.00;;;;;;;;;;5031883;28;20235;-79
2021/12/31 09:47:09;;;;;;;1.70;1.60;;;;;;;;;;5032828;28;20667;-78
2021/12/31 09:49:37;;;;;;;2.73;2.33;;;;;;;;;;5032425;28;20245;-78
2021/12/31 09:52:04;;;;;;;2.03;1.83;;;;;;;;;;5031472;28;20231;-78
2021/12/31 09:54:31;;;;;;;3.03;2.10;;;;;;;;;;5032074;28;20284;-80
2021/12/31 09:57:00;;;;;;;1.90;1.80;;;;;;;;;;5032721;28;20206;-78
2021/12/31 09:59:27;;;;;;;2.20;2.00;;;;;;;;;;5032007;28;20726;-79
2021/12/31 10:01:55;;;;;;;1.80;1.70;;;;;;;;;;5032660;28;20264;-79
2021/12/31 10:04:24;;;;;;;2.50;1.80;;;;;;;;;;5032341;28;20284;-79
2021/12/31 10:07:10;;;;;;;3.10;1.90;;;;;;;;;;5032743;28;20213;-79
2021/12/31 10:09:38;;;;;;;2.57;2.30;;;;;;;;;;5031861;28;20741;-79
2021/12/31 10:12:06;;;;;;;3.43;2.00;;;;;;;;;;5032578;28;20586;-80
2021/12/31 10:14:37;;;;;;;1.70;1.60;;;;;;;;;;5031840;28;20238;-79
2021/12/31 10:17:04;;;;;;;7.33;1.93;;;;;;;;;;5032608;28;20690;-79
2021/12/31 10:19:33;;;;;;;2.10;2.00;;;;;;;;;;5031448;28;20288;-79
2021/12/31 10:22:00;;;;;;;7.23;4.23;;;;;;;;;;5032530;28;20215;-80
2021/12/31 10:24:34;;;;;;;5.60;2.57;;;;;;;;;;5032241;28;20250;-79
2021/12/31 10:27:03;;;;;;;3.13;2.50;;;;;;;;;;5032665;28;20577;-79
2021/12/31 10:29:30;;;;;;;3.13;1.70;;;;;;;;;;5031519;28;20239;-80
2021/12/31 10:31:58;;;;;;;4.07;2.00;;;;;;;;;;5032203;28;20210;-79
2021/12/31 10:34:26;;;;;;;4.33;2.80;;;;;;;;;;5031784;28;20321;-79
2021/12/31 10:36:55;;;;;;;3.13;2.40;;;;;;;;;;5031959;28;20663;-79
2021/12/31 10:39:23;;;;;;;3.90;2.40;;;;;;;;;;5031742;28;20243;-79
2021/12/31 10:41:51;;;;;;;2.27;2.17;;;;;;;;;;5029631;28;20624;-81
2021/12/31 10:44:18;;;;;;;3.70;2.10;;;;;;;;;;5037656;28;20313;-79
2021/12/31 10:46:45;;;;;;;2.90;1.67;;;;;;;;;;5047170;28;20202;-79
2021/12/31 10:49:13;;;;;;;1.80;1.70;;;;;;;;;;5030629;28;20242;-79
2021/12/31 10:51:41;;;;;;;1.60;1.50;;;;;;;;;;5031428;28;20238;-80
2021/12/31 10:54:28;;;;;;;2.23;1.87;;;;;;;;;;5031161;28;20323;-80
2021/12/31 10:56:56;;;;;;;2.20;2.00;;;;;;;;;;5043847;28;20213;-79
2021/12/31 10:59:23;;;;;;;1.90;1.80;;;;;;;;;;5035179;28;20285;-81
2021/12/31 11:01:50;;;;;;;2.40;1.83;;;;;;;;;;5035141;28;20217;-79
2021/12/31 11:04:20;;;;;;;2.57;2.00;;;;;;;;;;5035605;28;20238;-80
2021/12/31 11:06:47;;;;;;;2.27;1.80;;;;;;;;;;5035320;28;20206;-80
2021/12/31 11:09:16;;;;;;;3.20;2.00;;;;;;;;;;5034719;28;20242;-80
2021/12/31 11:11:47;;;;;;;3.73;2.50;;;;;;;;;;5035220;28;20206;-80
2021/12/31 11:14:16;;;;;;;3.17;1.90;;;;;;;;;;5035172;28;20238;-80
2021/12/31 11:16:43;;;;;;;1.40;1.30;;;;;;;;;;5035384;28;20202;-79
2021/12/31 11:19:11;;;;;;;5.60;2.43;;;;;;;;;;5034855;28;20230;-80
2021/12/31 11:21:39;;;;;;;1.97;1.70;;;;;;;;;;5035065;28;20203;-80
2021/12/31 11:24:21;;;;;;;2.43;1.73;;;;;;;;;;5034827;28;20234;-80
2021/12/31 11:26:49;;;;;;;2.13;1.97;;;;;;;;;;5033871;28;20284;-81
2021/12/31 11:29:16;;;;;;;1.80;1.70;;;;;;;;;;5034876;28;20238;-83
2021/12/31 11:31:43;;;;;;;1.70;1.60;;;;;;;;;;5039787;28;20205;-78
2021/12/31 11:34:14;;;;;;;1.83;1.70;;;;;;;;;;5046577;28;20222;-76
2021/12/31 11:36:42;;;;;;;3.10;2.20;;;;;;;;;;5054365;28;20674;-76
2021/12/31 11:39:16;;;;;;;1.80;1.50;;;;;;;;;;5041995;28;20245;-80
2021/12/31 11:41:43;;;;;;;1.83;1.73;;;;;;;;;;5035773;28;20210;-80
2021/12/31 11:44:13;;;;;;;1.10;1.00;;;;;;;;;;5035186;28;20240;-80
2021/12/31 11:46:41;;;;;;;1.80;1.60;;;;;;;;;;5035223;28;20238;-81
2021/12/31 11:49:13;;;;;;;2.00;1.50;;;;;;;;;;5035153;28;20830;-80
2021/12/31 11:51:57;;;;;;;1.80;1.70;;;;;;;;;;5035732;28;20545;-80
2021/12/31 11:54:24;;;;;;;4.53;1.93;;;;;;;;;;5035641;28;20238;-80
2021/12/31 11:57:01;;;;;;;2.43;1.60;;;;;;;;;;5036231;28;20233;-80
2021/12/31 11:59:31;;;;;;;1.83;1.50;;;;;;;;;;5034977;28;20238;-80
2021/12/31 12:02:08;;;;;;;1.80;1.20;;;;;;;;;;5035426;28;20219;-80
2021/12/31 12:04:35;;;;;;;1.63;1.40;;;;;;;;;;5034804;28;20238;-81
2021/12/31 12:07:03;;;;;;;2.77;1.20;;;;;;;;;;5035038;28;20206;-80
2021/12/31 12:09:49;;;;;;;2.70;1.37;;;;;;;;;;5034109;28;20230;-80
2021/12/31 12:12:26;;;;;;;1.60;1.33;;;;;;;;;;5035342;28;20210;-80
2021/12/31 12:14:55;;;;;;;2.40;2.17;;;;;;;;;;5040935;28;20246;-80
2021/12/31 12:17:37;;;;;;;3.87;1.20;;;;;;;;;;5055955;28;20202;-82
2021/12/31 12:20:07;;;;;;;1.67;1.57;;;;;;;;;;5055317;28;20732;-80
2021/12/31 12:22:37;;;;;;;2.73;1.80;;;;;;;;;;5055285;28;20202;-80
2021/12/31 12:25:05;;;;;;;1.80;1.70;;;;;;;;;;5055268;28;20701;-80
2021/12/31 12:27:33;;;;;;;2.53;1.40;;;;;;;;;;5055464;28;20268;-80
2021/12/31 12:30:02;;;;;;;2.40;1.57;;;;;;;;;;5054708;28;20238;-81
2021/12/31 12:32:33;;;;;;;1.73;1.50;;;;;;;;;;5055869;28;20620;-80
2021/12/31 12:35:00;;;;;;;2.03;1.93;;;;;;;;;;5055414;28;20299;-80
2021/12/31 12:37:28;;;;;;;2.17;1.60;;;;;;;;;;5038161;28;20566;-80
2021/12/31 12:39:58;;;;;;;2.03;1.77;;;;;;;;;;5034728;28;20265;-80
2021/12/31 12:42:25;;;;;;;1.97;1.30;;;;;;;;;;5034818;28;20214;-80
2021/12/31 12:44:59;;;;;;;2.37;1.70;;;;;;;;;;5034456;28;20241;-80
2021/12/31 12:47:27;;;;;;;1.90;1.60;;;;;;;;;;5035118;28;20568;-80
2021/12/31 12:49:57;;;;;;;2.93;1.70;;;;;;;;;;5034970;28;20264;-81
2021/12/31 12:52:24;;;;;;;2.37;2.00;;;;;;;;;;5035649;28;20207;-80
2021/12/31 12:55:06;;;;;;;2.33;2.00;;;;;;;;;;5034512;28;20243;-80
2021/12/31 12:57:33;;;;;;;1.97;1.70;;;;;;;;;;5034704;28;20206;-80
2021/12/31 13:00:00;;;;;;;1.70;1.60;;;;;;;;;;5034314;28;20234;-80
2021/12/31 13:02:45;;;;;;;2.17;1.90;;;;;;;;;;5035449;28;20211;-80
2021/12/31 13:05:14;;;;;;;3.33;2.00;;;;;;;;;;5034832;28;20225;-80
2021/12/31 13:07:51;;;;;;;3.03;2.20;;;;;;;;;;5034429;28;20207;-80
2021/12/31 13:10:18;;;;;;;2.57;2.10;;;;;;;;;;5035964;28;20226;-81
2021/12/31 13:12:46;;;;;;;3.37;1.70;;;;;;;;;;5035903;28;20219;-80
2021/12/31 13:15:13;;;;;;;1.73;1.63;;;;;;;;;;5031321;28;20207;-80
2021/12/31 13:17:42;;;;;;;1.73;1.63;;;;;;;;;;5030206;28;20194;-80
2021/12/31 13:20:11;;;;;;;2.53;1.47;;;;;;;;;;5055276;28;20230;-80
2021/12/31 13:22:40;;;;;;;3.00;1.83;;;;;;;;;;5057828;28;20241;-80
2021/12/31 13:25:09;;;;;;;2.27;1.50;;;;;;;;;;5057385;28;20761;-80
2021/12/31 13:27:36;;;;;;;3.13;1.77;;;;;;;;;;5056991;28;20234;-81
2021/12/31 13:30:06;;;;;;;2.27;1.60;;;;;;;;;;5056184;28;20733;-80
2021/12/31 13:32:37;;;;;;;1.93;1.73;;;;;;;;;;5055409;28;20229;-80
2021/12/31 13:35:06;;;;;;;1.50;1.23;;;;;;;;;;5053633;28;20298;-79
2021/12/31 13:37:34;;;;;;;3.27;1.60;;;;;;;;;;5041098;28;20780;-79
2021/12/31 13:40:11;;;;;;;2.50;2.00;;;;;;;;;;5031936;28;20335;-81
2021/12/31 13:42:38;;;;;;;1.87;1.77;;;;;;;;;;5031008;28;20700;-80
2021/12/31 13:45:06;;;;;;;2.93;1.90;;;;;;;;;;5031696;28;20231;-79
2021/12/31 13:47:33;;;;;;;2.20;1.60;;;;;;;;;;5032170;28;20215;-79
2021/12/31 13:50:08;;;;;;;2.50;1.93;;;;;;;;;;5031975;28;20741;-81
2021/12/31 13:52:37;;;;;;;3.17;1.87;;;;;;;;;;5032522;28;20199;-79
2021/12/31 13:55:18;;;;;;;2.50;1.60;;;;;;;;;;5032085;28;20265;-79
2021/12/31 13:57:54;;;;;;;3.03;2.03;;;;;;;;;;5031586;28;20234;-79
2021/12/31 14:00:24;;;;;;;3.40;1.70;;;;;;;;;;5031614;28;20762;-80
2021/12/31 14:02:51;;;;;;;2.67;1.77;;;;;;;;;;5031341;28;20546;-80
2021/12/31 14:05:22;;;;;;;2.00;1.90;;;;;;;;;;5033680;28;20210;-81
2021/12/31 14:07:59;;;;;;;2.63;1.77;;;;;;;;;;5032497;28;20551;-78
2021/12/31 14:11:40;;;;;;;2.70;2.50;;;;;;;;;;5132194;27;20551;-79
2021/12/31 14:14:07;;;;;;;2.83;2.47;;;;;;;;;;5125807;27;20293;-85
2021/12/31 14:16:34;;;;;;;2.43;2.20;;;;;;;;;;5095977;28;20207;-83
2021/12/31 14:19:01;;;;;;;3.17;2.00;;;;;;;;;;5078999;28;20241;-84
2021/12/31 14:21:29;;;;;;;2.87;2.20;;;;;;;;;;5083301;28;20212;-80
2021/12/31 14:23:56;;;;;;;0.97;0.97;;;;;;;;;;5096804;28;20235;-79
2021/12/31 14:26:23;;;;;;;2.57;2.10;;;;;;;;;;5095328;28;20200;-83
2021/12/31 14:28:52;;;;;;;3.70;2.63;;;;;;;;;;5108422;28;20239;-83
2021/12/31 14:31:19;;;;;;;2.20;2.00;;;;;;;;;;5108681;28;20230;-82
2021/12/31 14:33:46;;;;;;;2.20;2.00;;;;;;;;;;5108139;28;20290;-83
2021/12/31 14:36:13;;;;;;;4.90;2.37;;;;;;;;;;5109548;28;20610;-83
2021/12/31 14:38:40;;;;;;;2.47;2.30;;;;;;;;;;5093089;28;20711;-83
2021/12/31 14:41:21;;;;;;;2.83;2.53;;;;;;;;;;5096602;28;20196;-83
2021/12/31 14:43:48;;;;;;;3.27;2.13;;;;;;;;;;5087543;28;20789;-82
2021/12/31 14:46:17;;;;;;;2.17;1.97;;;;;;;;;;5098273;28;20250;-83
2021/12/31 14:48:44;;;;;;;2.83;2.10;;;;;;;;;;5107283;28;20240;-82
2021/12/31 14:51:11;;;;;;;3.70;2.10;;;;;;;;;;5098591;28;20224;-82
2021/12/31 14:53:39;;;;;;;3.30;2.33;;;;;;;;;;5069374;28;20237;-83